Time;durP1;ratioP1;P1;durP2;ratioP2;P2;SDS_P1;SDS_P2;PMS_P1;PMS_P2;Temp;Humidity;BMP_temperature;BMP_pressure;BME280_temperature;BME280_humidity;BME280_pressure;Samples;Min_cycle;Max_cycle;Signal;HPM_P1;HPM_P2
2021/01/07 00:00:11;;;;;;;11.38;8.20;;;;;;;3.17;75.30;99459.82;1745960;81;21059;-37
2021/01/07 00:02:39;;;;;;;;;;;;;;;3.17;75.45;99456.59;1748096;80;21569;-38
2021/01/07 00:05:08;;;;;;;16.05;9.60;;;;;;;3.17;75.59;99442.41;1780170;80;20250;-38
2021/01/07 00:07:36;;;;;;;21.43;10.60;;;;;;;3.11;75.84;99440.95;1759215;80;21154;-38
2021/01/07 00:10:08;;;;;;;12.98;9.63;;;;;;;3.12;75.82;99437.19;1748148;80;20996;-38
2021/01/07 00:12:36;;;;;;;12.18;9.00;;;;;;;3.20;75.71;99435.09;1730661;80;21180;-39
2021/01/07 00:15:07;;;;;;;12.85;9.85;;;;;;;3.27;75.48;99436.23;1746124;80;21033;-38
2021/01/07 00:17:36;;;;;;;21.82;10.48;;;;;;;3.30;75.45;99433.48;1747819;80;21621;-38
2021/01/07 00:20:09;;;;;;;18.55;10.43;;;;;;;3.28;75.53;99443.73;1758666;80;21171;-38
2021/01/07 00:22:37;;;;;;;21.45;11.90;;;;;;;3.26;75.67;99445.91;1771123;80;21201;-36
2021/01/07 00:25:09;;;;;;;18.30;10.93;;;;;;;3.20;75.77;99438.55;1719451;83;21043;-38
2021/01/07 00:27:37;;;;;;;;;;;;;;;3.20;75.87;99436.42;1774881;80;21047;-38
2021/01/07 00:30:07;;;;;;;17.57;10.63;;;;;;;3.26;75.76;99425.82;1778946;80;20134;-39
2021/01/07 00:32:36;;;;;;;18.23;10.40;;;;;;;3.16;76.08;99426.09;1773837;80;21150;-38
2021/01/07 00:35:06;;;;;;;21.40;11.50;;;;;;;3.18;76.18;99426.58;1725350;82;21266;-39
2021/01/07 00:37:35;;;;;;;16.67;10.82;;;;;;;3.17;76.16;99420.98;1780239;80;21146;-39
2021/01/07 00:40:05;;;;;;;18.30;11.90;;;;;;;3.13;76.19;99418.68;1775361;80;21166;-39
2021/01/07 00:42:33;;;;;;;;;;;;;;;3.19;76.27;99420.92;1809585;78;21170;-39
2021/01/07 00:45:02;;;;;;;17.48;12.03;;;;;;;3.31;76.01;99422.45;1808924;78;20287;-40
2021/01/07 00:47:31;;;;;;;20.97;12.15;;;;;;;3.24;76.23;99418.66;1771606;79;21431;-39
2021/01/07 00:49:59;;;;;;;20.40;12.43;;;;;;;3.27;76.21;99420.70;1812428;78;21019;-39
2021/01/07 00:52:27;;;;;;;22.05;12.58;;;;;;;3.29;76.17;99419.86;1812933;78;21150;-39
2021/01/07 00:54:57;;;;;;;16.70;10.72;;;;;;;3.33;76.11;99420.81;1798663;78;21185;-40
2021/01/07 00:57:27;;;;;;;18.17;12.05;;;;;;;3.42;75.86;99416.27;1789546;79;21154;-39
2021/01/07 00:59:55;;;;;;;;;;;;;;;3.47;75.75;99413.45;1749187;80;21345;-39
2021/01/07 01:02:24;;;;;;;16.97;11.25;;;;;;;3.45;75.78;99415.64;1734626;81;20301;-39
2021/01/07 01:04:52;;;;;;;21.12;12.23;;;;;;;3.32;76.16;99411.20;1770220;80;21041;-39
2021/01/07 01:07:21;;;;;;;18.20;12.28;;;;;;;3.34;76.25;99406.33;1796044;78;21028;-40
2021/01/07 01:09:50;;;;;;;21.12;13.80;;;;;;;3.42;76.04;99410.37;1791294;78;21537;-39
2021/01/07 01:12:18;;;;;;;18.48;11.93;;;;;;;3.45;75.90;99399.02;1806812;78;21360;-40
2021/01/07 01:14:47;;;;;;;25.68;14.80;;;;;;;3.47;76.01;99394.70;1793260;79;21189;-39
2021/01/07 01:17:15;;;;;;;32.65;15.28;;;;;;;3.48;76.05;99393.05;1787611;79;21024;-40
2021/01/07 01:19:43;;;;;;;26.60;14.15;;;;;;;3.45;76.04;99388.30;1781760;78;21734;-39
2021/01/07 01:22:12;;;;;;;20.82;13.55;;;;;;;3.44;76.16;99385.92;1789708;78;21180;-39
2021/01/07 01:24:40;;;;;;;25.72;14.83;;;;;;;3.46;76.13;99380.50;1805412;78;21436;-40
2021/01/07 01:27:09;;;;;;;27.32;14.55;;;;;;;3.57;76.04;99376.19;1762377;80;21047;-40
2021/01/07 01:29:37;;;;;;;28.32;15.72;;;;;;;3.58;76.07;99373.20;1802346;78;21173;-39
2021/01/07 01:32:06;;;;;;;28.40;16.37;;;;;;;3.60;76.06;99372.88;1814841;78;21129;-40
2021/01/07 01:34:46;;;;;;;24.43;15.43;;;;;;;3.59;76.02;99365.38;1810860;78;21158;-40
2021/01/07 01:37:15;;;;;;;29.35;15.83;;;;;;;3.63;75.88;99356.19;1743913;80;22375;-40
2021/01/07 01:39:43;;;;;;;25.72;15.35;;;;;;;3.66;75.85;99347.50;1768336;80;21180;-40
2021/01/07 01:42:12;;;;;;;42.30;18.05;;;;;;;3.65;75.87;99340.56;1744535;80;21184;-39
2021/01/07 01:44:41;;;;;;;;;;;;;;;3.55;76.04;99328.80;1741596;81;21174;-40
2021/01/07 01:47:09;;;;;;;29.32;17.98;;;;;;;3.42;76.42;99327.84;1755410;80;20262;-39
2021/01/07 01:49:38;;;;;;;27.07;17.27;;;;;;;3.33;76.64;99319.80;1738250;81;21509;-40
2021/01/07 01:52:06;;;;;;;29.15;17.45;;;;;;;3.37;76.73;99318.61;1765823;80;21127;-39
2021/01/07 01:54:36;;;;;;;26.82;16.93;;;;;;;3.32;76.84;99312.85;1754997;80;21366;-40
2021/01/07 01:57:06;;;;;;;23.77;15.40;;;;;;;3.28;76.99;99319.14;1692782;81;21541;-39
2021/01/07 01:59:36;;;;;;;31.23;16.67;;;;;;;3.29;76.99;99309.44;1734168;81;21111;-39
2021/01/07 02:02:14;;;;;;;32.48;17.90;;;;;;;3.34;76.96;99298.57;1777032;79;21411;-43
2021/01/07 02:04:45;;;;;;;32.95;19.32;;;;;;;3.35;77.03;99295.34;1790843;79;21146;-40
2021/01/07 02:07:20;;;;;;;29.52;17.70;;;;;;;3.32;77.11;99285.27;1773844;79;21122;-39
2021/01/07 02:09:49;;;;;;;34.85;19.15;;;;;;;3.29;77.25;99277.86;1792414;79;21139;-39
2021/01/07 02:12:17;;;;;;;38.30;19.98;;;;;;;3.31;77.16;99274.30;1803782;79;21143;-39
2021/01/07 02:14:46;;;;;;;35.48;20.08;;;;;;;3.31;77.23;99271.63;1803555;79;21362;-40
2021/01/07 02:17:15;;;;;;;32.23;18.17;;;;;;;3.29;77.39;99268.48;1803072;79;21143;-39
2021/01/07 02:19:43;;;;;;;26.95;17.35;;;;;;;3.25;77.41;99266.96;1778810;79;21048;-39
2021/01/07 02:22:13;;;;;;;24.25;15.58;;;;;;;3.23;77.47;99272.41;1783557;79;21594;-40
2021/01/07 02:24:41;;;;;;;26.82;16.65;;;;;;;3.29;77.36;99267.14;1797387;79;21138;-40
2021/01/07 02:27:13;;;;;;;26.45;14.68;;;;;;;3.28;77.42;99262.34;1798707;79;21362;-40
2021/01/07 02:29:42;;;;;;;24.52;14.38;;;;;;;3.25;77.40;99259.47;1798887;79;20992;-39
2021/01/07 02:32:11;;;;;;;22.22;14.58;;;;;;;3.20;77.42;99262.30;1803819;79;21163;-40
2021/01/07 02:34:40;;;;;;;21.75;13.62;;;;;;;3.23;77.37;99253.66;1783948;79;21159;-39
2021/01/07 02:37:08;;;;;;;23.38;15.08;;;;;;;3.26;77.37;99254.36;1777399;79;21151;-40
2021/01/07 02:39:36;;;;;;;29.92;15.95;;;;;;;3.26;77.45;99252.47;1782653;79;22110;-40
2021/01/07 02:42:05;;;;;;;23.32;14.33;;;;;;;3.26;77.49;99255.16;1756640;79;21228;-39
2021/01/07 02:44:35;;;;;;;24.32;15.75;;;;;;;3.31;77.39;99252.88;1780789;79;21692;-40
2021/01/07 02:47:05;;;;;;;29.27;16.85;;;;;;;3.36;77.16;99251.38;1768244;79;21208;-39
2021/01/07 02:49:34;;;;;;;32.08;16.27;;;;;;;3.34;77.25;99248.24;1775803;79;21122;-40
2021/01/07 02:52:02;;;;;;;28.55;17.25;;;;;;;3.31;77.31;99244.28;1776103;79;21553;-39
2021/01/07 02:54:30;;;;;;;29.72;16.25;;;;;;;3.26;77.42;99239.63;1781175;79;21134;-39
2021/01/07 02:56:59;;;;;;;26.27;16.80;;;;;;;3.27;77.41;99227.81;1775359;79;21160;-40
2021/01/07 02:59:27;;;;;;;25.70;16.90;;;;;;;3.28;77.48;99228.05;1792687;79;21017;-40
2021/01/07 03:01:55;;;;;;;29.23;16.48;;;;;;;3.27;77.60;99223.80;1789787;79;21131;-39
2021/01/07 03:04:24;;;;;;;23.60;15.95;;;;;;;3.26;77.64;99224.89;1795380;79;21163;-39
2021/01/07 03:06:52;;;;;;;19.85;14.73;;;;;;;3.27;77.63;99217.09;1795617;79;20964;-39
2021/01/07 03:09:23;;;;;;;26.30;16.00;;;;;;;3.31;77.49;99222.05;1796112;79;21166;-39
2021/01/07 03:11:52;;;;;;;28.98;15.72;;;;;;;3.24;77.62;99215.06;1792581;79;21106;-39
2021/01/07 03:14:20;;;;;;;28.70;16.05;;;;;;;3.16;77.88;99210.45;1787565;79;21171;-39
2021/01/07 03:16:49;;;;;;;23.67;15.10;;;;;;;3.12;78.03;99214.88;1793786;79;21426;-39
2021/01/07 03:19:18;;;;;;;23.57;16.27;;;;;;;2.95;77.98;99173.56;1791426;79;21649;-40
2021/01/07 03:21:46;;;;;;;26.02;14.28;;;;;;;3.19;78.08;99207.96;1780283;79;21104;-40
2021/01/07 03:24:16;;;;;;;22.58;15.13;;;;;;;3.15;78.18;99199.53;1779013;79;21138;-40
2021/01/07 03:26:44;;;;;;;24.35;15.03;;;;;;;3.17;78.28;99206.69;1784310;79;21582;-40
2021/01/07 03:29:13;;;;;;;24.52;15.83;;;;;;;3.23;78.11;99204.89;1793040;79;23593;-39
2021/01/07 03:31:41;;;;;;;24.52;15.80;;;;;;;3.13;78.14;99189.67;1718716;83;21043;-39
2021/01/07 03:34:10;;;;;;;21.97;14.87;;;;;;;3.15;78.31;99196.27;1784443;79;21159;-39
2021/01/07 03:36:38;;;;;;;20.82;15.25;;;;;;;3.16;78.26;99197.86;1777699;79;21143;-40
2021/01/07 03:39:06;;;;;;;24.15;15.60;;;;;;;3.22;78.27;99198.50;1795107;79;21122;-40
2021/01/07 03:41:35;;;;;;;29.72;16.52;;;;;;;3.21;78.27;99189.67;1792338;79;21459;-39
2021/01/07 03:44:05;;;;;;;24.02;15.15;;;;;;;3.19;78.40;99180.39;1797792;79;21056;-39
2021/01/07 03:46:33;;;;;;;21.45;14.65;;;;;;;2.81;78.35;99119.38;1719549;81;21176;-40
2021/01/07 03:49:02;;;;;;;23.80;15.18;;;;;;;3.23;78.27;99171.41;1757273;80;21178;-39
2021/01/07 03:51:30;;;;;;;20.62;14.47;;;;;;;3.25;78.21;99173.75;1738009;82;21190;-39
2021/01/07 03:53:58;;;;;;;21.52;14.87;;;;;;;3.22;78.29;99175.17;1744497;81;21550;-39
2021/01/07 03:56:27;;;;;;;21.45;14.75;;;;;;;3.23;78.38;99170.61;1717745;80;21409;-40
2021/01/07 03:58:56;;;;;;;17.40;13.50;;;;;;;3.27;78.21;99168.33;1760081;81;21163;-39
2021/01/07 04:01:25;;;;;;;25.75;13.95;;;;;;;3.35;78.17;99169.41;1744753;81;21594;-40
2021/01/07 04:03:53;;;;;;;20.95;13.90;;;;;;;3.38;78.09;99171.48;1772017;80;21139;-39
2021/01/07 04:06:22;;;;;;;19.73;13.15;;;;;;;3.38;77.97;99178.97;1799951;79;21191;-40
2021/01/07 04:08:50;;;;;;;16.77;11.88;;;;;;;3.44;77.84;99183.05;1780309;79;21931;-40
2021/01/07 04:11:18;;;;;;;15.78;11.75;;;;;;;3.55;77.62;99183.52;1778900;79;21060;-40
2021/01/07 04:13:47;;;;;;;20.90;15.05;;;;;;;3.60;77.43;99184.69;1796557;79;21143;-39
2021/01/07 04:16:16;;;;;;;22.58;14.95;;;;;;;3.58;77.29;99188.26;1801325;79;21585;-40
2021/01/07 04:18:44;;;;;;;20.43;14.23;;;;;;;3.54;77.34;99196.67;1789444;79;21427;-39
2021/01/07 04:21:16;;;;;;;14.65;9.58;;;;;;;3.58;77.34;99197.64;1800200;79;22206;-40
2021/01/07 04:23:44;;;;;;;18.62;13.53;;;;;;;3.64;77.12;99193.67;1791765;79;21163;-40
2021/01/07 04:26:15;;;;;;;28.52;16.32;;;;;;;3.65;77.07;99184.53;1791824;79;22038;-39
2021/01/07 04:28:43;;;;;;;20.77;14.07;;;;;;;3.64;77.07;99182.16;1776227;79;21629;-40
2021/01/07 04:31:13;;;;;;;20.68;14.30;;;;;;;3.61;77.08;99173.42;1792556;79;21450;-40
2021/01/07 04:33:42;;;;;;;22.60;14.20;;;;;;;3.59;77.12;99163.55;1791960;79;21154;-40
2021/01/07 04:36:10;;;;;;;18.95;14.10;;;;;;;3.62;76.97;99154.34;1801277;79;21139;-39
2021/01/07 04:38:39;;;;;;;28.02;15.80;;;;;;;3.56;77.13;99152.93;1799558;79;21107;-39
2021/01/07 04:41:07;;;;;;;20.02;14.33;;;;;;;3.48;77.33;99151.85;1749178;81;21187;-39
2021/01/07 04:43:36;;;;;;;22.32;15.45;;;;;;;3.49;77.34;99150.72;1768797;80;21201;-39
2021/01/07 04:46:04;;;;;;;19.60;14.25;;;;;;;3.50;77.37;99146.16;1764379;80;21537;-39
2021/01/07 04:48:36;;;;;;;23.95;14.35;;;;;;;3.47;77.55;99142.23;1777705;80;21011;-39
2021/01/07 04:51:05;;;;;;;22.42;13.15;;;;;;;3.45;77.58;99133.70;1785102;80;21027;-40
2021/01/07 04:53:33;;;;;;;15.97;11.03;;;;;;;3.39;77.72;99133.63;1777316;80;21170;-39
2021/01/07 04:56:02;;;;;;;21.00;13.53;;;;;;;3.41;77.69;99133.32;1775569;79;21491;-39
2021/01/07 04:58:30;;;;;;;26.57;14.15;;;;;;;3.44;77.79;99130.78;1775868;80;21582;-39
2021/01/07 05:00:59;;;;;;;18.60;12.85;;;;;;;3.43;77.81;99124.42;1766093;80;21150;-39
2021/01/07 05:03:30;;;;;;;21.12;11.97;;;;;;;3.37;77.86;99124.34;1773637;80;21392;-39
2021/01/07 05:05:59;;;;;;;21.07;12.23;;;;;;;3.33;78.05;99128.22;1760218;80;21158;-39
2021/01/07 05:08:28;;;;;;;18.70;12.43;;;;;;;3.32;78.16;99123.96;1753037;81;21397;-39
2021/01/07 05:10:57;;;;;;;20.63;11.97;;;;;;;3.27;78.32;99117.97;1761501;80;21122;-40
2021/01/07 05:13:25;;;;;;;19.23;10.80;;;;;;;3.24;78.51;99115.94;1785179;80;21148;-39
2021/01/07 05:15:53;;;;;;;19.17;11.57;;;;;;;3.23;78.53;99115.70;1753169;81;21589;-39
2021/01/07 05:18:22;;;;;;;17.07;11.35;;;;;;;3.29;78.44;99115.78;1758016;80;21180;-39
2021/01/07 05:20:50;;;;;;;16.52;11.35;;;;;;;3.26;78.55;99114.50;1749063;81;21286;-39
2021/01/07 05:23:20;;;;;;;15.70;11.12;;;;;;;3.25;78.63;99109.45;1754065;81;21213;-40
2021/01/07 05:25:53;;;;;;;22.50;10.60;;;;;;;3.21;78.69;99105.84;1766251;80;21174;-39
2021/01/07 05:28:21;;;;;;;19.65;11.08;;;;;;;3.29;78.58;99107.74;1737240;80;21167;-39
2021/01/07 05:30:50;;;;;;;24.63;11.00;;;;;;;3.27;78.73;99105.92;1729941;80;21166;-39
2021/01/07 05:33:18;;;;;;;14.05;9.85;;;;;;;3.25;78.80;99098.73;1764285;80;21277;-39
2021/01/07 05:35:47;;;;;;;15.23;8.20;;;;;;;3.22;78.88;99097.49;1780259;80;21147;-40
2021/01/07 05:38:16;;;;;;;30.32;10.28;;;;;;;3.30;78.72;99094.55;1707705;80;21153;-40
2021/01/07 05:40:51;;;;;;;25.55;10.65;;;;;;;3.24;78.87;99090.48;1709439;82;21220;-40
2021/01/07 05:43:19;;;;;;;19.65;10.18;;;;;;;3.18;79.07;99078.36;1733736;82;21174;-40
2021/01/07 05:45:51;;;;;;;21.70;10.72;;;;;;;3.14;79.21;99078.21;1747640;80;21212;-39
2021/01/07 05:48:20;;;;;;;28.87;11.93;;;;;;;3.19;79.22;99083.95;1731091;80;21024;-39
2021/01/07 05:50:49;;;;;;;22.90;10.90;;;;;;;3.17;79.28;99082.92;1740600;81;21351;-40
2021/01/07 05:53:17;;;;;;;29.15;10.80;;;;;;;3.18;79.38;99083.71;1776434;80;21159;-39
2021/01/07 05:55:45;;;;;;;23.10;11.33;;;;;;;3.22;79.22;99081.97;1755096;80;21131;-40
2021/01/07 05:58:14;;;;;;;48.92;12.10;;;;;;;3.21;79.20;99081.73;1750833;80;22657;-39
2021/01/07 06:00:42;;;;;;;15.55;11.10;;;;;;;3.17;79.36;99082.13;1748525;80;21013;-40
2021/01/07 06:03:14;;;;;;;18.00;10.80;;;;;;;3.13;79.49;99083.33;1753126;80;21131;-40
2021/01/07 06:05:42;;;;;;;22.62;11.12;;;;;;;3.16;79.59;99077.88;1762049;80;21236;-39
2021/01/07 06:08:11;;;;;;;33.45;12.03;;;;;;;3.19;79.62;99081.28;1747622;81;21174;-39
2021/01/07 06:10:39;;;;;;;32.63;11.22;;;;;;;3.17;79.66;99079.45;1752758;80;21474;-40
2021/01/07 06:13:09;;;;;;;24.80;11.48;;;;;;;3.17;79.75;99080.25;1766041;80;21207;-41
2021/01/07 06:15:38;;;;;;;40.40;12.23;;;;;;;3.25;79.51;99090.70;1756904;80;21040;-40
2021/01/07 06:18:06;;;;;;;27.58;12.07;;;;;;;3.23;79.67;99085.68;1765457;80;21127;-40
2021/01/07 06:20:35;;;;;;;18.70;10.98;;;;;;;3.24;79.77;99088.59;1755067;80;21577;-40
2021/01/07 06:23:04;;;;;;;20.10;11.45;;;;;;;3.28;79.67;99091.42;1757570;80;21469;-40
2021/01/07 06:25:33;;;;;;;33.30;10.08;;;;;;;3.34;79.42;99090.16;1740104;80;21207;-40
2021/01/07 06:28:01;;;;;;;27.93;13.05;;;;;;;3.33;79.52;99076.52;1768096;80;21047;-40
2021/01/07 06:30:32;;;;;;;25.85;11.88;;;;;;;3.29;79.55;99083.05;1762959;80;21741;-40
2021/01/07 06:33:06;;;;;;;38.28;12.78;;;;;;;3.32;79.56;99078.41;1770300;80;21135;-40
2021/01/07 06:35:39;;;;;;;22.75;12.78;;;;;;;3.37;79.40;99079.59;1748311;80;22127;-40
2021/01/07 06:38:08;;;;;;;25.75;13.35;;;;;;;3.34;79.49;99078.11;1782844;80;21143;-40
2021/01/07 06:40:43;;;;;;;23.75;13.25;;;;;;;3.32;79.63;99077.63;1784329;78;21230;-40
2021/01/07 06:43:13;;;;;;;20.37;13.28;;;;;;;3.36;79.51;99077.22;1777196;78;21075;-40
2021/01/07 06:45:53;;;;;;;37.30;15.03;;;;;;;3.36;79.50;99067.84;1781204;78;21153;-41
2021/01/07 06:48:35;;;;;;;22.70;14.50;;;;;;;3.33;79.68;99060.45;1780250;80;21196;-41
2021/01/07 06:51:05;;;;;;;28.32;13.98;;;;;;;3.33;79.62;99064.47;1794493;78;21201;-41
2021/01/07 06:53:37;;;;;;;34.43;16.10;;;;;;;3.32;79.79;99064.23;1787658;78;21024;-41
2021/01/07 06:56:11;;;;;;;26.00;13.70;;;;;;;3.30;79.93;99066.42;1796735;78;21180;-41
2021/01/07 06:58:41;;;;;;;26.90;14.90;;;;;;;3.29;80.00;99064.88;1773710;78;21621;-41
2021/01/07 07:01:14;;;;;;;30.08;15.13;;;;;;;3.34;79.97;99062.79;1756883;79;22225;-41
2021/01/07 07:03:52;;;;;;;32.95;17.05;;;;;;;3.37;79.91;99053.34;1793578;79;21108;-41
2021/01/07 07:06:26;;;;;;;29.95;15.40;;;;;;;3.32;80.07;99054.85;1766987;79;21154;-41
2021/01/07 07:08:54;;;;;;;32.75;15.45;;;;;;;3.31;80.15;99043.89;1779881;79;21234;-41
2021/01/07 07:11:34;;;;;;;39.15;16.02;;;;;;;3.32;80.17;99046.27;1791487;79;22103;-41
2021/01/07 07:14:06;;;;;;;26.33;14.83;;;;;;;3.33;80.22;99048.39;1804085;79;23436;-40
2021/01/07 07:16:36;;;;;;;22.70;15.13;;;;;;;3.28;80.40;99056.05;1801209;79;21198;-41
2021/01/07 07:19:06;;;;;;;29.90;15.40;;;;;;;3.33;80.38;99050.52;1792382;79;21163;-41
2021/01/07 07:21:35;;;;;;;27.77;15.43;;;;;;;3.38;80.34;99053.58;1781173;79;21552;-41
2021/01/07 07:24:09;;;;;;;21.13;12.17;;;;;;;3.35;80.39;99046.16;1789245;78;21577;-41
2021/01/07 07:26:42;;;;;;;23.70;14.58;;;;;;;3.37;80.38;99037.27;1764657;79;22124;-41
2021/01/07 07:29:13;;;;;;;28.30;15.65;;;;;;;3.43;80.22;99034.11;1743317;80;21664;-41
2021/01/07 07:31:46;;;;;;;25.35;14.68;;;;;;;3.40;80.35;99031.26;1775620;78;21192;-40
2021/01/07 07:34:16;;;;;;;24.20;14.75;;;;;;;3.37;80.47;99034.59;1744073;82;21627;-40
2021/01/07 07:36:44;;;;;;;25.15;15.28;;;;;;;3.42;80.43;99031.73;1787068;79;21112;-40
2021/01/07 07:39:14;;;;;;;27.15;16.15;;;;;;;3.47;80.40;99026.20;1790611;78;21633;-40
2021/01/07 07:41:44;;;;;;;20.17;14.70;;;;;;;3.48;80.44;99021.09;1782599;78;21189;-40
2021/01/07 07:44:14;;;;;;;26.90;14.93;;;;;;;3.51;80.31;99024.45;1780924;78;20993;-40
2021/01/07 07:46:43;;;;;;;19.50;13.57;;;;;;;3.53;80.25;99015.55;1781595;80;21625;-40
2021/01/07 07:49:12;;;;;;;22.02;13.53;;;;;;;3.55;80.25;99010.64;1791763;79;21581;-40
2021/01/07 07:51:41;;;;;;;21.10;12.67;;;;;;;3.55;80.29;99012.53;1812255;79;22204;-40
2021/01/07 07:54:11;;;;;;;20.00;13.22;;;;;;;3.58;80.24;99012.70;1793746;79;25601;-40
2021/01/07 07:56:43;;;;;;;20.60;12.30;;;;;;;3.65;80.10;99002.80;1791211;78;21643;-40
2021/01/07 07:59:13;;;;;;;20.02;11.68;;;;;;;3.68;80.06;99001.59;1697291;82;21223;-40
2021/01/07 08:01:49;;;;;;;17.90;11.90;;;;;;;3.68;80.02;98998.91;1788932;79;21147;-40
2021/01/07 08:04:22;;;;;;;19.85;12.53;;;;;;;3.69;79.96;98987.08;1785438;78;21375;-40
2021/01/07 08:06:50;;;;;;;17.10;11.85;;;;;;;3.72;79.86;98980.30;1789659;79;21154;-40
2021/01/07 08:09:20;;;;;;;19.12;12.43;;;;;;;3.69;80.05;98980.38;1754831;80;21357;-40
2021/01/07 08:11:52;;;;;;;19.20;11.18;;;;;;;3.68;80.12;98979.38;1811284;78;21138;-40
2021/01/07 08:14:24;;;;;;;17.50;11.65;;;;;;;3.67;80.12;98970.55;1808165;78;22334;-40
2021/01/07 08:16:55;;;;;;;20.52;12.90;;;;;;;3.68;80.16;98969.42;1790468;79;22133;-40
2021/01/07 08:19:34;;;;;;;18.30;12.65;;;;;;;3.65;80.36;98966.05;1809349;79;21782;-40
2021/01/07 08:22:04;;;;;;;20.10;12.53;;;;;;;3.68;80.38;98964.64;1768782;80;21111;-40
2021/01/07 08:24:33;;;;;;;18.48;13.18;;;;;;;3.72;80.34;98962.33;1784464;79;21199;-40
2021/01/07 08:27:16;;;;;;;22.40;12.70;;;;;;;3.73;80.32;98961.20;1785414;79;21480;-40
2021/01/07 08:29:47;;;;;;;18.73;12.40;;;;;;;3.71;80.38;98953.26;1791286;79;21695;-40
2021/01/07 08:32:20;;;;;;;;;;;;;;;3.74;80.37;98953.94;1785868;79;21167;-40
2021/01/07 08:34:49;;;;;;;25.27;13.28;;;;;;;3.79;80.40;98951.08;1789347;78;20211;-40
2021/01/07 08:37:22;;;;;;;15.63;10.10;;;;;;;3.72;80.68;98948.13;1760759;80;21188;-40
2021/01/07 08:39:52;;;;;;;20.15;13.80;;;;;;;3.78;80.54;98936.09;1740770;81;21398;-40
2021/01/07 08:42:20;;;;;;;25.85;13.60;;;;;;;3.78;80.32;98918.11;1725090;82;21544;-40
2021/01/07 08:44:59;;;;;;;26.62;13.55;;;;;;;3.84;80.26;98928.89;1729415;81;21616;-40
2021/01/07 08:47:27;;;;;;;16.57;12.07;;;;;;;3.85;80.40;98929.13;1722940;81;21147;-40
2021/01/07 08:50:11;;;;;;;23.87;12.80;;;;;;;3.84;80.41;98920.05;1730788;81;21190;-39
2021/01/07 08:52:53;;;;;;;22.70;13.78;;;;;;;3.92;80.28;98913.29;1733941;82;21613;-39
2021/01/07 08:55:23;;;;;;;18.27;13.15;;;;;;;3.93;80.28;98907.38;1724370;81;21207;-39
2021/01/07 08:58:03;;;;;;;21.15;12.93;;;;;;;3.91;80.32;98908.27;1735425;82;21218;-39
2021/01/07 09:00:31;;;;;;;30.08;13.80;;;;;;;3.98;80.33;98900.48;1726030;82;21633;-37
2021/01/07 09:03:02;;;;;;;28.23;15.05;;;;;;;4.05;80.28;98893.26;1719077;82;21159;-38
2021/01/07 09:05:31;;;;;;;18.95;13.43;;;;;;;4.03;80.29;98884.74;1730935;82;21162;-38
2021/01/07 09:08:09;;;;;;;21.10;12.55;;;;;;;4.05;80.22;98879.84;1727134;82;21313;-39
2021/01/07 09:10:38;;;;;;;29.42;14.43;;;;;;;4.10;80.22;98874.28;1720170;82;21186;-39
2021/01/07 09:13:23;;;;;;;25.50;14.10;;;;;;;4.11;80.25;98875.31;1725496;82;21113;-39
2021/01/07 09:15:51;;;;;;;23.05;14.33;;;;;;;4.12;80.35;98866.67;1727270;81;21184;-37
2021/01/07 09:18:20;;;;;;;21.48;13.58;;;;;;;4.13;80.35;98864.23;1713778;83;21127;-39
2021/01/07 09:20:48;;;;;;;31.50;15.93;;;;;;;4.23;80.27;98865.17;1713112;83;21380;-40
2021/01/07 09:23:16;;;;;;;28.25;16.02;;;;;;;4.24;80.22;98850.65;1713150;83;21017;-40
2021/01/07 09:25:47;;;;;;;23.98;14.83;;;;;;;4.21;80.23;98852.08;1718041;82;21187;-40
2021/01/07 09:28:25;;;;;;;28.77;16.40;;;;;;;4.25;80.22;98850.87;1856398;76;22108;-40
2021/01/07 09:30:53;;;;;;;44.53;17.05;;;;;;;4.26;80.25;98843.06;1821028;77;21234;-40
2021/01/07 09:33:22;;;;;;;27.58;16.65;;;;;;;4.26;80.23;98835.02;1846304;77;22302;-40
2021/01/07 09:35:50;;;;;;;29.35;16.73;;;;;;;4.23;80.33;98827.61;1838024;77;21318;-40
2021/01/07 09:38:19;;;;;;;37.67;18.52;;;;;;;4.30;80.24;98823.30;1828251;77;21237;-40
2021/01/07 09:40:47;;;;;;;30.48;17.17;;;;;;;4.29;80.31;98815.56;1821737;77;21039;-40
2021/01/07 09:43:16;;;;;;;31.45;18.02;;;;;;;4.28;80.46;98809.41;1826940;77;21600;-39
2021/01/07 09:45:45;;;;;;;29.77;17.50;;;;;;;4.30;80.47;98800.48;1821724;77;21185;-40
2021/01/07 09:48:13;;;;;;;30.77;18.15;;;;;;;4.36;80.39;98791.09;1790219;79;21032;-40
2021/01/07 09:50:41;;;;;;;32.42;16.97;;;;;;;4.35;80.40;98787.41;1808031;78;21034;-40
2021/01/07 09:53:10;;;;;;;27.75;16.77;;;;;;;4.35;80.32;98783.39;1791008;79;21138;-39
2021/01/07 09:55:39;;;;;;;29.07;17.02;;;;;;;4.38;80.29;98773.32;1803478;79;21166;-40
2021/01/07 09:58:09;;;;;;;29.40;16.73;;;;;;;4.37;80.26;98767.16;1795186;79;21423;-39
2021/01/07 10:00:38;;;;;;;27.67;16.65;;;;;;;4.35;80.33;98761.37;1770069;80;21177;-40
2021/01/07 10:03:06;;;;;;;25.43;15.63;;;;;;;4.32;80.41;98751.28;1767934;80;21127;-40
2021/01/07 10:05:34;;;;;;;26.37;16.60;;;;;;;4.42;80.23;98743.36;1769097;80;21561;-40
2021/01/07 10:08:02;;;;;;;30.43;15.80;;;;;;;4.40;80.28;98740.23;1780177;80;21101;-39
2021/01/07 10:10:31;;;;;;;23.80;15.00;;;;;;;4.38;80.43;98735.20;1778942;80;21196;-40
2021/01/07 10:12:59;;;;;;;25.48;15.72;;;;;;;4.42;80.41;98731.28;1766998;80;21175;-40
2021/01/07 10:15:28;;;;;;;27.67;16.60;;;;;;;4.47;80.34;98723.02;1766515;80;21541;-40
2021/01/07 10:17:56;;;;;;;22.77;15.05;;;;;;;4.46;80.42;98720.09;1768784;80;21197;-39
2021/01/07 10:20:24;;;;;;;24.50;14.53;;;;;;;4.47;80.49;98706.91;1772881;80;21149;-39
2021/01/07 10:22:53;;;;;;;26.35;15.55;;;;;;;4.56;80.44;98700.87;1770013;80;21368;-40
2021/01/07 10:25:21;;;;;;;30.37;15.72;;;;;;;4.59;80.46;98696.19;1766738;80;21408;-40
2021/01/07 10:27:49;;;;;;;23.25;14.03;;;;;;;4.58;80.54;98695.95;1801249;79;21413;-40
2021/01/07 10:30:18;;;;;;;24.07;15.00;;;;;;;4.60;80.55;98684.31;1800010;79;21133;-40
2021/01/07 10:32:46;;;;;;;23.80;15.17;;;;;;;4.66;80.36;98685.66;1772909;80;21137;-39
2021/01/07 10:35:17;;;;;;;25.60;15.23;;;;;;;4.68;80.36;98681.30;1768215;80;21437;-40
2021/01/07 10:37:45;;;;;;;19.12;12.95;;;;;;;4.66;80.31;98680.29;1793873;79;21699;-40
2021/01/07 10:40:14;;;;;;;24.63;14.90;;;;;;;4.68;80.29;98671.91;1799906;79;21170;-39
2021/01/07 10:42:43;;;;;;;25.70;15.10;;;;;;;4.71;80.05;98654.55;1776400;80;21140;-40
2021/01/07 10:45:13;;;;;;;22.77;13.90;;;;;;;4.76;80.07;98669.09;1732638;80;21953;-40
2021/01/07 10:47:44;;;;;;;23.73;13.90;;;;;;;4.74;80.25;98663.27;1772770;80;21277;-40
2021/01/07 10:50:15;;;;;;;22.93;13.72;;;;;;;4.83;80.24;98655.11;1752126;80;21095;-40
2021/01/07 10:53:04;;;;;;;;;;;;;;;4.90;80.07;98643.78;1773952;80;21103;-40
2021/01/07 10:55:32;;;;;;;21.95;13.00;;;;;;;4.88;80.18;98642.01;1761797;80;20222;-40
2021/01/07 10:58:27;;;;;;;20.60;11.50;;;;;;;4.76;80.53;98638.77;1775052;80;21888;-43
2021/01/07 11:01:25;;;;;;;17.32;11.22;;;;;;;4.85;80.51;98633.27;1781552;80;21256;-40
2021/01/07 11:04:24;;;;;;;15.48;9.93;;;;;;;4.85;80.57;98630.58;1771953;79;21094;-40
2021/01/07 11:07:13;;;;;;;13.87;9.77;;;;;;;4.83;80.70;98624.78;1762498;80;21008;-39
2021/01/07 11:09:42;;;;;;;13.53;9.25;;;;;;;4.89;80.65;98616.13;1765281;80;21142;-40
2021/01/07 11:12:22;;;;;;;14.83;10.03;;;;;;;4.92;80.58;98607.97;1782647;80;21108;-40
2021/01/07 11:15:03;;;;;;;12.63;9.00;;;;;;;4.91;80.65;98609.09;1777335;80;21451;-40
2021/01/07 11:17:35;;;;;;;15.38;9.63;;;;;;;4.94;80.62;98601.13;1770965;80;21185;-40
2021/01/07 11:20:07;;;;;;;15.53;9.78;;;;;;;5.01;80.49;98599.22;1768579;80;21052;-40
2021/01/07 11:22:35;;;;;;;12.10;9.55;;;;;;;5.02;80.45;98598.09;1787792;80;21149;-39
2021/01/07 11:25:07;;;;;;;13.65;9.80;;;;;;;5.02;80.47;98588.70;1769120;79;21208;-39
2021/01/07 11:27:36;;;;;;;;;;;;;;;5.10;80.31;98578.36;1795547;77;21189;-39
2021/01/07 11:30:06;;;;;;;14.78;9.38;;;;;;;5.19;79.97;98583.81;1798960;79;21334;-39
2021/01/07 11:32:39;;;;;;;14.75;9.83;;;;;;;5.09;80.25;98579.48;1762886;80;20975;-39
2021/01/07 11:35:09;;;;;;;13.03;9.18;;;;;;;5.13;80.15;98569.05;1751570;80;21169;-39
2021/01/07 11:38:03;;;;;;;12.80;9.18;;;;;;;5.19;79.96;98564.22;1751856;80;21186;-39
2021/01/07 11:40:37;;;;;;;13.55;8.98;;;;;;;5.26;79.67;98565.77;1752255;80;21198;-39
2021/01/07 11:43:44;;;;;;;11.28;7.90;;;;;;;5.22;79.77;98560.30;1760678;80;21506;-39